Time;durP1;ratioP1;P1;durP2;ratioP2;P2;SDS_P1;SDS_P2;PMS_P1;PMS_P2;Temp;Humidity;BMP_temperature;BMP_pressure;BME280_temperature;BME280_humidity;BME280_pressure;Samples;Min_cycle;Max_cycle;Signal;HPM_P1;HPM_P2
2022/11/17 00:02:00;;;;;;;7.03;4.35;;;10.40;70.30;;;;;;6308215;22;20019;-70
2022/11/17 00:04:29;;;;;;;6.18;3.92;;;10.40;70.30;;;;;;6307836;22;19996;-71
2022/11/17 00:10:19;;;;;;;6.75;4.18;;;10.50;70.20;;;;;;6183042;23;20009;-70
2022/11/17 00:15:29;;;;;;;5.72;4.18;;;10.60;70.10;;;;;;6183446;23;20090;-71
2022/11/17 00:23:24;;;;;;;5.45;4.07;;;10.60;69.80;;;;;;6183407;23;20016;-71
2022/11/17 00:25:50;;;;;;;6.38;3.83;;;10.70;69.80;;;;;;6183098;23;20404;-70
2022/11/17 00:28:16;;;;;;;5.03;3.78;;;10.70;69.60;;;;;;6183254;23;20055;-70
2022/11/17 00:36:14;;;;;;;5.20;3.78;;;10.80;69.10;;;;;;6183317;23;20076;-71
2022/11/17 00:38:43;;;;;;;6.95;4.32;;;10.80;69.00;;;;;;6183308;23;20311;-70
2022/11/17 00:41:10;;;;;;;5.32;3.75;;;10.80;69.00;;;;;;6183182;23;20418;-70
2022/11/17 00:43:36;;;;;;;6.88;3.92;;;10.80;68.80;;;;;;6182950;23;20001;-70
2022/11/17 00:46:02;;;;;;;5.30;3.50;;;10.80;68.50;;;;;;6167639;22;20012;-70
2022/11/17 00:48:28;;;;;;;4.55;3.63;;;10.80;68.40;;;;;;6280381;22;19999;-70
2022/11/17 00:50:53;;;;;;;5.68;3.40;;;10.80;68.40;;;;;;6280251;22;20084;-71
2022/11/17 00:53:19;;;;;;;6.30;3.65;;;10.80;68.30;;;;;;6280508;22;20058;-71
2022/11/17 00:55:47;;;;;;;4.43;3.22;;;10.90;68.50;;;;;;6307915;22;19995;-71
2022/11/17 00:58:13;;;;;;;4.93;3.33;;;10.90;68.60;;;;;;6307742;22;20000;-70
2022/11/17 01:00:39;;;;;;;5.50;3.08;;;10.90;68.70;;;;;;6280679;22;20008;-71
2022/11/17 01:03:04;;;;;;;3.80;2.80;;;10.90;68.80;;;;;;6280719;22;20007;-71
2022/11/17 01:05:33;;;;;;;3.63;3.03;;;11.00;68.90;;;;;;6280325;22;19995;-70
2022/11/17 01:08:02;;;;;;;4.35;3.00;;;11.00;68.90;;;;;;6308108;22;20390;-71
2022/11/17 01:10:27;;;;;;;7.32;4.35;;;11.00;68.90;;;;;;6280236;22;20089;-70
2022/11/17 01:12:53;;;;;;;7.28;4.38;;;11.00;68.70;;;;;;6307665;22;20038;-71
2022/11/17 01:15:19;;;;;;;6.45;4.20;;;11.10;68.50;;;;;;6307636;22;20007;-71
2022/11/17 01:17:45;;;;;;;7.05;4.80;;;11.10;68.30;;;;;;6307218;22;19995;-70
2022/11/17 01:20:12;;;;;;;5.63;4.28;;;11.10;68.10;;;;;;6307632;22;20014;-71
2022/11/17 01:22:38;;;;;;;5.05;3.78;;;11.10;68.10;;;;;;6307368;22;20442;-71
2022/11/17 01:25:05;;;;;;;7.90;4.75;;;11.10;68.10;;;;;;6307549;22;20000;-71
2022/11/17 01:27:30;;;;;;;6.55;4.90;;;11.10;68.10;;;;;;6280354;22;20050;-70
2022/11/17 01:29:56;;;;;;;5.72;4.25;;;11.10;68.10;;;;;;6280478;22;20015;-71
2022/11/17 01:32:22;;;;;;;6.10;3.95;;;11.10;68.20;;;;;;6280331;22;20304;-71
2022/11/17 01:34:48;;;;;;;5.50;4.07;;;11.10;68.30;;;;;;6307327;22;20431;-70
2022/11/17 01:37:20;;;;;;;7.50;4.70;;;11.20;68.40;;;;;;6280355;22;20010;-71
2022/11/17 01:39:47;;;;;;;5.93;4.57;;;11.20;68.50;;;;;;6307910;22;20007;-70
2022/11/17 01:42:25;;;;;;;6.10;4.53;;;11.20;68.50;;;;;;6307858;22;20053;-71
2022/11/17 01:45:21;;;;;;;6.47;4.78;;;11.20;68.40;;;;;;6280524;22;20004;-70
2022/11/17 01:48:00;;;;;;;6.72;4.88;;;11.30;68.20;;;;;;6278918;22;20003;-71
2022/11/17 01:50:39;;;;;;;5.72;4.60;;;11.30;68.20;;;;;;6278634;22;20026;-71
2022/11/17 01:53:13;;;;;;;6.13;4.85;;;11.30;68.10;;;;;;6279170;22;20065;-71
2022/11/17 01:55:52;;;;;;;6.40;4.82;;;11.30;68.10;;;;;;6308537;22;19995;-71
2022/11/17 01:58:23;;;;;;;7.25;4.90;;;11.40;68.10;;;;;;6281076;22;20015;-71
2022/11/17 02:00:49;;;;;;;6.93;4.70;;;11.40;68.10;;;;;;6308250;22;20003;-71
2022/11/17 02:03:16;;;;;;;7.55;4.78;;;11.40;68.00;;;;;;6280928;22;20026;-71
2022/11/17 02:06:01;;;;;;;7.85;4.40;;;11.40;68.00;;;;;;6280583;22;20018;-71
2022/11/17 02:08:30;;;;;;;7.03;4.82;;;11.50;68.00;;;;;;6308174;22;19995;-70
2022/11/17 02:10:57;;;;;;;7.22;5.20;;;11.50;68.00;;;;;;6308357;22;20031;-71
2022/11/17 02:13:23;;;;;;;8.10;5.32;;;11.50;67.90;;;;;;6307959;22;20501;-71
2022/11/17 02:15:49;;;;;;;8.38;5.43;;;11.50;67.80;;;;;;6280757;22;20007;-71
2022/11/17 02:18:16;;;;;;;7.75;5.55;;;11.60;67.90;;;;;;6307967;22;20007;-71
2022/11/17 02:20:56;;;;;;;10.57;6.35;;;11.60;67.80;;;;;;6308016;22;20023;-71
2022/11/17 02:23:34;;;;;;;8.02;5.38;;;11.60;67.50;;;;;;6308187;22;20083;-71
2022/11/17 02:26:28;;;;;;;7.07;4.40;;;11.60;67.40;;;;;;6280726;22;20500;-71
2022/11/17 02:29:18;;;;;;;8.05;4.60;;;11.60;67.30;;;;;;6307824;22;20010;-71
2022/11/17 02:31:57;;;;;;;7.53;5.07;;;11.60;67.20;;;;;;6307785;22;20432;-72
2022/11/17 02:34:55;;;;;;;5.75;4.45;;;11.60;67.30;;;;;;6307850;22;20074;-71
2022/11/17 02:37:30;;;;;;;8.98;6.03;;;11.60;67.20;;;;;;6309303;22;19999;-71
2022/11/17 02:40:23;;;;;;;13.60;7.82;;;11.60;67.10;;;;;;6281927;22;20366;-71
2022/11/17 02:46:01;;;;;;;6.88;4.38;;;11.60;66.90;;;;;;6307666;22;20014;-70
2022/11/17 02:48:33;;;;;;;7.70;4.72;;;11.60;67.00;;;;;;6308091;22;20000;-71
2022/11/17 02:51:00;;;;;;;8.02;4.78;;;11.60;67.10;;;;;;6307833;22;20065;-71
2022/11/17 02:53:28;;;;;;;9.32;5.93;;;11.60;67.00;;;;;;6308045;22;20021;-70
2022/11/17 02:55:57;;;;;;;18.95;8.80;;;11.60;66.80;;;;;;6280603;22;20427;-71
2022/11/17 02:58:23;;;;;;;20.17;7.90;;;11.50;66.30;;;;;;6280470;22;20011;-71
2022/11/17 03:01:17;;;;;;;13.57;6.70;;;11.50;66.30;;;;;;6307833;22;20003;-71
2022/11/17 03:04:09;;;;;;;11.98;6.35;;;11.50;66.20;;;;;;6280406;22;19999;-71
2022/11/17 03:06:52;;;;;;;11.90;5.88;;;11.50;66.40;;;;;;6233410;22;20336;-71
2022/11/17 03:09:35;;;;;;;9.03;5.63;;;11.50;66.60;;;;;;6307785;22;20134;-71
2022/11/17 03:12:12;;;;;;;11.25;6.20;;;11.50;66.80;;;;;;6280408;22;20787;-71
2022/11/17 03:15:04;;;;;;;11.50;6.50;;;11.50;66.80;;;;;;6307824;22;20105;-72
2022/11/17 03:17:40;;;;;;;11.65;6.63;;;11.50;66.70;;;;;;6280306;22;20069;-71
2022/11/17 03:20:30;;;;;;;12.73;7.70;;;11.50;66.80;;;;;;6280347;22;20007;-71
2022/11/17 03:23:18;;;;;;;17.63;8.70;;;11.50;66.70;;;;;;6280372;22;20004;-70
2022/11/17 03:25:50;;;;;;;14.90;8.02;;;11.50;66.50;;;;;;6280347;22;20057;-70
2022/11/17 03:28:18;;;;;;;20.58;9.77;;;11.50;66.40;;;;;;6280341;22;20056;-71
2022/11/17 03:30:45;;;;;;;19.10;9.55;;;11.50;66.30;;;;;;6307479;22;20049;-71
2022/11/17 03:33:17;;;;;;;20.10;9.18;;;11.50;67.10;;;;;;6279767;22;19999;-71
2022/11/17 03:36:01;;;;;;;20.35;10.07;;;11.50;66.40;;;;;;6307592;22;20078;-71
2022/11/17 03:38:31;;;;;;;17.25;8.82;;;11.50;66.50;;;;;;6307561;22;20029;-71
2022/11/17 03:41:01;;;;;;;20.58;10.20;;;11.50;66.70;;;;;;6307810;22;20033;-70
2022/11/17 03:43:29;;;;;;;17.10;9.77;;;11.50;66.60;;;;;;6280376;22;20003;-71
2022/11/17 03:46:02;;;;;;;19.50;9.23;;;11.50;66.70;;;;;;6307551;22;19995;-70
2022/11/17 03:48:34;;;;;;;19.25;8.73;;;11.50;66.70;;;;;;6280473;22;20007;-71
2022/11/17 03:51:15;;;;;;;16.73;8.32;;;11.50;66.70;;;;;;6307939;22;20128;-71
2022/11/17 03:53:41;;;;;;;20.20;10.65;;;11.50;66.70;;;;;;6308575;22;20034;-71
2022/11/17 03:56:33;;;;;;;21.08;10.60;;;11.50;66.60;;;;;;6308381;22;20044;-70
2022/11/17 03:59:22;;;;;;;22.33;11.07;;;11.50;66.40;;;;;;6308148;22;19995;-71
2022/11/17 04:01:53;;;;;;;22.08;11.05;;;11.50;66.20;;;;;;6306106;22;20009;-71
2022/11/17 04:04:21;;;;;;;22.88;11.35;;;11.50;66.10;;;;;;6279836;22;20007;-71
2022/11/17 04:06:49;;;;;;;20.55;10.48;;;11.50;66.10;;;;;;6279780;22;20007;-71
2022/11/17 04:09:15;;;;;;;25.35;11.52;;;11.50;66.30;;;;;;6307114;22;20070;-71
2022/11/17 04:17:17;;;;;;;20.50;10.70;;;11.40;66.10;;;;;;6306580;22;20450;-71
2022/11/17 04:19:51;;;;;;;17.73;9.77;;;11.40;66.00;;;;;;6306567;22;20003;-71
2022/11/17 04:22:17;;;;;;;18.63;9.10;;;11.40;65.80;;;;;;6306816;22;20078;-72
2022/11/17 04:24:43;;;;;;;21.58;12.23;;;11.40;65.80;;;;;;6305176;22;20027;-71
2022/11/17 04:29:52;;;;;;;16.65;9.98;;;11.30;65.40;;;;;;6306676;22;20026;-70
2022/11/17 04:32:18;;;;;;;15.50;9.52;;;11.30;65.60;;;;;;6306532;22;20078;-71
2022/11/17 04:34:44;;;;;;;9.90;6.15;;;11.30;65.70;;;;;;6306632;22;20007;-71
2022/11/17 04:37:16;;;;;;;13.75;8.23;;;11.40;65.90;;;;;;6306590;22;20328;-70
2022/11/17 04:39:43;;;;;;;12.73;7.90;;;11.40;65.90;;;;;;6279658;22;20003;-71
2022/11/17 04:42:09;;;;;;;14.98;8.45;;;11.30;65.60;;;;;;6306620;22;20116;-71
2022/11/17 04:44:35;;;;;;;14.55;7.45;;;11.30;65.60;;;;;;6306617;22;19999;-71
2022/11/17 04:47:02;;;;;;;11.80;7.43;;;11.30;65.70;;;;;;6279456;22;20069;-71
2022/11/17 04:49:30;;;;;;;13.80;7.72;;;11.40;65.90;;;;;;6278670;22;20007;-71
2022/11/17 04:51:55;;;;;;;13.23;7.63;;;11.40;66.00;;;;;;6306757;22;20003;-72
2022/11/17 04:54:26;;;;;;;12.55;8.27;;;11.40;65.80;;;;;;6306713;22;20423;-71
2022/11/17 04:56:52;;;;;;;13.82;7.72;;;11.40;65.60;;;;;;6306925;22;20001;-70
2022/11/17 04:59:18;;;;;;;9.05;6.63;;;11.40;65.50;;;;;;6306744;22;20041;-71
2022/11/17 05:01:45;;;;;;;10.70;7.22;;;11.40;65.30;;;;;;6306830;22;19999;-70
2022/11/17 05:04:13;;;;;;;10.65;6.90;;;11.40;65.30;;;;;;6306483;22;20352;-70
2022/11/17 05:06:44;;;;;;;9.20;6.60;;;11.40;65.40;;;;;;6306230;22;19999;-71
2022/11/17 05:09:15;;;;;;;9.68;6.55;;;11.40;65.30;;;;;;6306254;22;20017;-71
2022/11/17 05:14:27;;;;;;;9.75;6.90;;;11.40;65.50;;;;;;6306126;22;20098;-71
2022/11/17 05:17:07;;;;;;;14.65;6.82;;;11.40;65.60;;;;;;6306540;22;19995;-71
2022/11/17 05:19:44;;;;;;;18.95;7.65;;;11.40;65.60;;;;;;6306428;22;20371;-71
2022/11/17 05:25:02;;;;;;;12.05;7.93;;;11.50;65.40;;;;;;6306030;22;20018;-71
2022/11/17 05:27:29;;;;;;;13.45;7.60;;;11.40;65.20;;;;;;6278732;22;20125;-71
2022/11/17 05:29:54;;;;;;;12.75;8.23;;;11.40;65.00;;;;;;6280194;22;20004;-70
2022/11/17 05:32:23;;;;;;;10.50;6.70;;;11.40;65.10;;;;;;6308006;22;20041;-72
2022/11/17 05:34:49;;;;;;;12.00;7.28;;;11.40;65.20;;;;;;6274888;22;20020;-71
2022/11/17 05:37:15;;;;;;;12.45;8.32;;;11.40;65.10;;;;;;6301327;22;20137;-71
2022/11/17 05:39:41;;;;;;;15.43;8.05;;;11.40;65.20;;;;;;6277318;22;20007;-71
2022/11/17 05:42:07;;;;;;;10.15;7.20;;;11.40;65.10;;;;;;6277134;22;19991;-71
2022/11/17 05:44:32;;;;;;;12.80;8.15;;;11.30;65.20;;;;;;6276703;22;20440;-71
2022/11/17 05:46:58;;;;;;;14.85;7.47;;;11.30;65.00;;;;;;6275472;22;20442;-71
2022/11/17 05:49:24;;;;;;;12.98;8.05;;;11.30;65.00;;;;;;6300938;22;20004;-70
2022/11/17 05:51:50;;;;;;;13.45;8.07;;;11.30;64.90;;;;;;6277214;22;20002;-71
2022/11/17 05:54:16;;;;;;;14.27;8.20;;;11.30;65.00;;;;;;6277339;22;19996;-71
2022/11/17 05:56:45;;;;;;;12.80;8.52;;;11.30;65.90;;;;;;6277278;22;19996;-70
2022/11/17 05:59:32;;;;;;;16.25;9.23;;;11.20;65.20;;;;;;6277166;22;19996;-71
2022/11/17 06:02:13;;;;;;;14.68;9.68;;;11.20;65.40;;;;;;6276716;22;20079;-71
2022/11/17 06:04:45;;;;;;;15.40;8.68;;;11.20;65.50;;;;;;6276999;22;20034;-72
2022/11/17 06:07:13;;;;;;;14.55;9.13;;;11.10;65.60;;;;;;6301436;22;20044;-71
2022/11/17 06:09:41;;;;;;;13.20;8.30;;;11.10;65.80;;;;;;6277008;22;20007;-71
2022/11/17 06:12:10;;;;;;;14.27;8.73;;;11.10;65.90;;;;;;6277357;22;20006;-71
2022/11/17 06:14:38;;;;;;;12.38;7.68;;;11.10;66.00;;;;;;6276970;22;20061;-72
2022/11/17 06:17:16;;;;;;;11.90;7.90;;;11.10;66.20;;;;;;6301076;22;20004;-71
2022/11/17 06:19:48;;;;;;;12.82;7.90;;;11.10;66.20;;;;;;6276233;22;19996;-71
2022/11/17 06:22:13;;;;;;;12.98;8.10;;;11.10;66.30;;;;;;6276822;22;20027;-71
2022/11/17 06:24:42;;;;;;;11.80;8.15;;;11.10;66.40;;;;;;6300943;22;20014;-70
2022/11/17 06:27:09;;;;;;;11.52;8.00;;;11.10;66.40;;;;;;6274973;22;20435;-70
2022/11/17 06:29:35;;;;;;;14.15;7.97;;;11.10;66.40;;;;;;6275003;22;20428;-71
2022/11/17 06:32:01;;;;;;;11.68;7.57;;;11.10;66.50;;;;;;6276176;22;20003;-70
2022/11/17 06:34:27;;;;;;;10.13;7.28;;;11.10;66.40;;;;;;6295950;22;20019;-70
2022/11/17 06:36:53;;;;;;;10.85;6.78;;;11.20;66.50;;;;;;6307391;22;20424;-70
2022/11/17 06:39:19;;;;;;;9.32;6.07;;;11.10;66.30;;;;;;6307423;22;20064;-70
2022/11/17 06:41:48;;;;;;;11.77;6.75;;;11.20;66.50;;;;;;6307147;22;19999;-70
2022/11/17 06:44:16;;;;;;;9.10;6.22;;;11.20;66.30;;;;;;6307359;22;20098;-70
2022/11/17 06:46:45;;;;;;;9.05;6.22;;;11.20;66.90;;;;;;6307582;22;20397;-70
2022/11/17 06:49:13;;;;;;;9.50;5.88;;;11.20;66.00;;;;;;6279449;22;20074;-70
2022/11/17 06:51:44;;;;;;;9.43;5.95;;;11.10;65.70;;;;;;6279435;22;20086;-70
2022/11/17 06:54:17;;;;;;;7.97;5.80;;;11.20;65.70;;;;;;6306745;22;19995;-70
2022/11/17 06:56:48;;;;;;;7.17;5.10;;;11.20;66.00;;;;;;6307376;22;20006;-70
2022/11/17 06:59:16;;;;;;;8.32;5.68;;;11.10;65.90;;;;;;6306704;22;20766;-70
2022/11/17 07:01:44;;;;;;;8.80;5.63;;;11.20;65.90;;;;;;6280015;22;20297;-71
2022/11/17 07:04:10;;;;;;;6.90;5.00;;;11.20;65.60;;;;;;6307348;22;20079;-71
2022/11/17 07:06:36;;;;;;;8.38;5.10;;;11.20;65.80;;;;;;6279966;22;20014;-70
2022/11/17 07:09:05;;;;;;;8.50;5.20;;;11.30;65.90;;;;;;6280043;22;20445;-70
2022/11/17 07:11:33;;;;;;;8.00;5.35;;;11.30;66.70;;;;;;6307407;22;20010;-70
2022/11/17 07:13:59;;;;;;;8.35;5.30;;;11.30;65.90;;;;;;6280199;22;20003;-70
2022/11/17 07:16:25;;;;;;;9.15;4.80;;;11.40;65.90;;;;;;6307668;22;19999;-70
2022/11/17 07:18:52;;;;;;;6.53;4.20;;;11.40;65.90;;;;;;6280069;22;20091;-70
2022/11/17 07:21:18;;;;;;;7.55;4.53;;;11.50;65.70;;;;;;6307423;22;20006;-70
2022/11/17 07:23:44;;;;;;;9.43;4.57;;;11.50;65.70;;;;;;6307198;22;20320;-70
2022/11/17 07:26:11;;;;;;;8.68;4.63;;;11.60;65.60;;;;;;6307424;22;20006;-70
2022/11/17 07:28:36;;;;;;;9.27;4.53;;;11.60;66.40;;;;;;6306982;22;20041;-71
2022/11/17 07:31:07;;;;;;;8.43;4.70;;;11.70;65.50;;;;;;6279491;22;20003;-71
2022/11/17 07:33:36;;;;;;;10.02;5.05;;;11.70;64.90;;;;;;6279303;22;20030;-71
2022/11/17 07:36:06;;;;;;;8.20;4.50;;;11.70;64.80;;;;;;6307232;22;20003;-71
2022/11/17 07:38:33;;;;;;;11.40;4.32;;;11.80;64.70;;;;;;6279457;22;19995;-71
2022/11/17 07:41:02;;;;;;;8.32;4.15;;;11.80;64.60;;;;;;6279566;22;20035;-71
2022/11/17 07:43:32;;;;;;;8.23;3.83;;;11.90;64.70;;;;;;6307016;22;20023;-70
2022/11/17 07:46:06;;;;;;;6.57;4.20;;;11.90;64.80;;;;;;6307170;22;20042;-71
2022/11/17 07:48:32;;;;;;;9.82;5.00;;;12.00;64.90;;;;;;6279702;22;20431;-70
2022/11/17 07:50:58;;;;;;;9.73;5.25;;;12.10;64.80;;;;;;6306781;22;20007;-71
2022/11/17 07:53:24;;;;;;;7.72;5.00;;;12.10;64.50;;;;;;6279400;22;20057;-70
2022/11/17 07:55:50;;;;;;;7.13;3.63;;;12.20;64.10;;;;;;6306607;22;20431;-71
2022/11/17 07:58:18;;;;;;;9.60;3.53;;;12.20;63.50;;;;;;6306562;22;20003;-70
2022/11/17 08:00:44;;;;;;;3.80;2.67;;;12.20;63.30;;;;;;6306757;22;20003;-70
2022/11/17 08:03:12;;;;;;;5.57;2.88;;;12.30;62.80;;;;;;6306964;22;20052;-71
2022/11/17 08:05:40;;;;;;;5.05;3.13;;;12.30;62.80;;;;;;6279297;22;19999;-70
2022/11/17 08:08:09;;;;;;;5.57;3.20;;;12.30;62.60;;;;;;6306640;22;19999;-71
2022/11/17 08:10:38;;;;;;;10.98;3.15;;;12.30;62.40;;;;;;6306368;22;20003;-71
2022/11/17 08:13:06;;;;;;;8.40;2.95;;;12.30;62.30;;;;;;6306570;22;20040;-71
2022/11/17 08:15:40;;;;;;;5.22;3.35;;;12.30;62.30;;;;;;6306208;22;20446;-70
2022/11/17 08:18:06;;;;;;;7.30;4.38;;;12.30;62.30;;;;;;6279409;22;20045;-71
2022/11/17 08:20:32;;;;;;;7.43;5.07;;;12.30;62.40;;;;;;6279226;22;19999;-70
2022/11/17 08:22:58;;;;;;;6.97;4.82;;;12.30;62.40;;;;;;6279013;22;20082;-71
2022/11/17 08:25:25;;;;;;;8.45;4.25;;;12.30;62.60;;;;;;6306599;22;20026;-70
2022/11/17 08:27:58;;;;;;;7.40;5.38;;;12.30;63.10;;;;;;6279287;22;20027;-70
2022/11/17 08:30:25;;;;;;;7.93;5.70;;;12.30;63.10;;;;;;6279050;22;20094;-71
2022/11/17 08:32:54;;;;;;;8.40;5.15;;;12.30;63.20;;;;;;6306124;22;20437;-71
2022/11/17 08:35:22;;;;;;;9.27;5.82;;;12.30;63.30;;;;;;6306502;22;20022;-71
2022/11/17 08:37:48;;;;;;;9.35;6.30;;;12.30;63.40;;;;;;6306591;22;20006;-70
2022/11/17 08:40:14;;;;;;;11.05;6.35;;;12.40;63.70;;;;;;6279087;22;20007;-71
2022/11/17 08:42:40;;;;;;;8.70;5.78;;;12.40;63.50;;;;;;6306359;22;20007;-72
2022/11/17 08:45:07;;;;;;;12.93;6.68;;;12.40;63.80;;;;;;6278813;22;20003;-71
2022/11/17 08:47:33;;;;;;;11.55;6.45;;;12.50;63.70;;;;;;6278928;22;20010;-71
2022/11/17 08:49:59;;;;;;;13.40;6.43;;;12.50;63.50;;;;;;6305927;22;20354;-71
2022/11/17 08:52:28;;;;;;;12.82;7.63;;;12.60;63.60;;;;;;6305888;22;20075;-70
2022/11/17 08:54:54;;;;;;;14.15;7.20;;;12.70;63.50;;;;;;6306394;22;19999;-70
2022/11/17 08:57:22;;;;;;;11.98;7.15;;;12.70;63.10;;;;;;6305980;22;20017;-70
2022/11/17 08:59:49;;;;;;;13.55;7.10;;;12.80;62.90;;;;;;6306229;22;19996;-70
2022/11/17 09:02:15;;;;;;;10.05;5.93;;;12.80;62.80;;;;;;6278755;22;20007;-71
2022/11/17 09:04:41;;;;;;;10.88;6.40;;;12.90;62.70;;;;;;6306349;22;20020;-72
2022/11/17 09:07:07;;;;;;;9.95;6.10;;;12.90;63.40;;;;;;6279068;22;20026;-71
2022/11/17 09:09:36;;;;;;;11.32;6.40;;;13.00;62.90;;;;;;6278843;22;19999;-70
2022/11/17 09:12:02;;;;;;;10.23;6.20;;;13.00;62.50;;;;;;6306547;22;20061;-71
2022/11/17 09:14:34;;;;;;;11.13;6.68;;;13.10;62.30;;;;;;6306512;22;19995;-71
2022/11/17 09:17:02;;;;;;;14.50;7.18;;;13.20;62.30;;;;;;6306945;22;20006;-70
2022/11/17 09:19:30;;;;;;;12.35;6.40;;;13.20;62.00;;;;;;6278706;22;19995;-71
2022/11/17 09:21:59;;;;;;;11.63;6.45;;;13.30;61.90;;;;;;6279012;22;20426;-71
2022/11/17 09:24:25;;;;;;;11.95;6.75;;;13.30;62.10;;;;;;6306230;22;20007;-71
2022/11/17 09:26:56;;;;;;;11.63;6.80;;;13.40;61.90;;;;;;6306326;22;20004;-71
2022/11/17 09:29:24;;;;;;;11.00;6.45;;;13.40;61.60;;;;;;6306120;22;19999;-71
2022/11/17 09:31:53;;;;;;;18.95;9.52;;;13.50;61.80;;;;;;6306338;22;19999;-70
2022/11/17 09:34:19;;;;;;;21.92;12.20;;;13.50;61.80;;;;;;6278300;22;20020;-70
2022/11/17 09:36:47;;;;;;;21.92;12.32;;;13.50;61.90;;;;;;6306597;22;20053;-70
2022/11/17 09:39:14;;;;;;;24.05;13.05;;;13.60;61.70;;;;;;6306590;22;20006;-70
2022/11/17 09:41:43;;;;;;;25.38;14.20;;;13.60;61.50;;;;;;6306576;22;20003;-70
2022/11/17 09:44:22;;;;;;;30.20;16.58;;;13.60;61.20;;;;;;6306120;22;20408;-71
2022/11/17 09:47:17;;;;;;;25.90;14.88;;;13.60;61.10;;;;;;6278632;22;20010;-71
2022/11/17 09:50:22;;;;;;;28.83;13.85;;;13.60;61.10;;;;;;6278390;22;20019;-71
2022/11/17 09:53:19;;;;;;;26.67;15.88;;;13.70;61.10;;;;;;6306003;22;20002;-70
2022/11/17 09:55:52;;;;;;;27.17;15.13;;;13.70;61.20;;;;;;6305999;22;20074;-70
2022/11/17 09:58:24;;;;;;;30.38;15.68;;;13.70;61.50;;;;;;6306534;22;20049;-70
2022/11/17 10:00:51;;;;;;;25.92;15.27;;;13.70;61.50;;;;;;6306090;22;20077;-71
2022/11/17 10:03:20;;;;;;;30.90;16.33;;;13.70;61.60;;;;;;6279372;22;20060;-71
2022/11/17 10:05:48;;;;;;;23.45;14.85;;;13.70;61.70;;;;;;6279977;22;20003;-70
2022/11/17 10:08:19;;;;;;;25.95;14.18;;;13.70;61.50;;;;;;6279950;22;20049;-70
2022/11/17 10:10:49;;;;;;;28.85;15.95;;;13.70;61.20;;;;;;6307026;22;20007;-71
2022/11/17 10:13:24;;;;;;;27.40;16.42;;;13.70;61.50;;;;;;6279915;22;20004;-70
2022/11/17 10:16:13;;;;;;;30.30;16.52;;;13.70;61.70;;;;;;6307841;22;20002;-70
2022/11/17 10:18:39;;;;;;;25.98;15.48;;;13.60;62.00;;;;;;6309004;22;20442;-71
2022/11/17 10:21:08;;;;;;;21.60;13.93;;;13.60;62.30;;;;;;6281769;22;20054;-71
2022/11/17 10:23:37;;;;;;;19.73;12.40;;;13.60;62.60;;;;;;6281800;22;19999;-70
2022/11/17 10:26:08;;;;;;;23.10;12.57;;;13.60;62.90;;;;;;6309068;22;20071;-70
2022/11/17 10:28:34;;;;;;;24.85;14.77;;;13.60;63.10;;;;;;6281602;22;20425;-71
2022/11/17 10:31:11;;;;;;;27.35;14.35;;;13.60;63.10;;;;;;6281500;22;20014;-71
2022/11/17 10:33:38;;;;;;;31.67;15.77;;;13.60;63.20;;;;;;6308685;22;20021;-70
2022/11/17 10:36:18;;;;;;;30.98;18.13;;;13.60;63.40;;;;;;6281401;22;20031;-70
2022/11/17 10:38:53;;;;;;;34.92;19.95;;;13.60;63.10;;;;;;6308970;22;20058;-71
2022/11/17 10:41:26;;;;;;;32.85;20.63;;;13.60;62.90;;;;;;6281275;22;20003;-70
2022/11/17 10:44:12;;;;;;;37.53;22.10;;;13.60;62.90;;;;;;6309121;22;20273;-71
2022/11/17 10:47:23;;;;;;;34.65;20.90;;;13.60;62.90;;;;;;6308656;22;20066;-70
2022/11/17 10:50:05;;;;;;;31.17;17.05;;;13.60;63.60;;;;;;6213404;23;20012;-71
2022/11/17 10:52:31;;;;;;;27.58;16.00;;;13.70;63.40;;;;;;6213393;23;19997;-71
2022/11/17 10:55:26;;;;;;;27.98;15.45;;;13.80;63.40;;;;;;6188583;23;20169;-71
2022/11/17 10:58:23;;;;;;;26.23;15.52;;;13.80;63.30;;;;;;6212432;23;20015;-70
2022/11/17 11:01:05;;;;;;;26.83;15.55;;;13.90;63.00;;;;;;6188842;23;20008;-70
2022/11/17 11:03:34;;;;;;;22.63;13.40;;;14.00;63.20;;;;;;6212740;23;20457;-71
2022/11/17 11:06:25;;;;;;;20.85;12.52;;;14.10;63.30;;;;;;6212545;23;20179;-71
2022/11/17 11:09:14;;;;;;;17.85;11.35;;;14.30;63.30;;;;;;6186613;23;20426;-71
2022/11/17 11:11:44;;;;;;;17.98;10.70;;;14.40;62.70;;;;;;6212398;23;20112;-71
2022/11/17 11:14:15;;;;;;;20.40;11.80;;;14.50;62.30;;;;;;6187059;23;20012;-72
2022/11/17 11:16:44;;;;;;;21.23;11.77;;;14.60;62.00;;;;;;6212509;23;20079;-72
2022/11/17 11:19:16;;;;;;;16.65;11.10;;;14.70;61.60;;;;;;6186954;23;20001;-72
2022/11/17 11:22:12;;;;;;;19.63;10.57;;;14.70;61.10;;;;;;6212321;23;20008;-72
2022/11/17 11:24:51;;;;;;;20.58;12.30;;;14.80;61.40;;;;;;6212345;23;20005;-74
2022/11/17 11:27:20;;;;;;;24.52;11.82;;;15.00;60.50;;;;;;6279780;22;20293;-72
2022/11/17 11:30:12;;;;;;;19.40;11.60;;;15.00;59.90;;;;;;6280892;22;20020;-72
2022/11/17 11:32:59;;;;;;;16.92;9.90;;;15.00;59.70;;;;;;6279976;22;20094;-72
2022/11/17 11:35:43;;;;;;;13.95;8.98;;;15.00;59.90;;;;;;6308505;22;20011;-72
2022/11/17 11:38:27;;;;;;;;;;;15.00;59.40;;;;;;6281807;22;20011;-72
2022/11/17 11:41:18;;;;;;;16.00;9.53;;;15.00;60.40;;;;;;6281107;22;19903;-72
2022/11/17 11:43:55;;;;;;;17.25;11.15;;;15.10;59.80;;;;;;6307851;22;19991;-72
2022/11/17 11:46:40;;;;;;;20.20;10.68;;;15.20;59.70;;;;;;6280565;22;20011;-72
2022/11/17 11:49:25;;;;;;;;;;;15.20;59.70;;;;;;6308621;22;20019;-72
2022/11/17 11:51:51;;;;;;;17.27;9.45;;;15.30;60.30;;;;;;6308235;22;19911;-72
2022/11/17 11:54:33;;;;;;;15.88;8.55;;;15.30;59.60;;;;;;6280944;22;19999;-72
2022/11/17 11:56:59;;;;;;;16.77;12.27;;;15.30;59.30;;;;;;6308420;22;20095;-72
2022/11/17 11:59:58;;;;;;;14.63;11.02;;;15.30;58.90;;;;;;6307999;22;20000;-72
2022/11/17 12:02:26;;;;;;;11.80;8.50;;;15.20;58.70;;;;;;6308327;22;20007;-73
2022/11/17 12:05:15;;;;;;;16.98;9.63;;;15.20;58.70;;;;;;6307673;22;20415;-72
2022/11/17 12:07:59;;;;;;;13.30;8.45;;;15.10;58.90;;;;;;6308320;22;19995;-72
2022/11/17 12:10:47;;;;;;;16.02;10.35;;;15.10;59.00;;;;;;6308024;22;20014;-72
2022/11/17 12:13:15;;;;;;;15.48;9.80;;;15.10;58.80;;;;;;6308168;22;20312;-72
2022/11/17 12:15:44;;;;;;;16.15;10.45;;;15.10;59.10;;;;;;6280312;22;20023;-72
2022/11/17 12:18:15;;;;;;;13.48;9.20;;;15.10;59.20;;;;;;6307658;22;20022;-72
2022/11/17 12:20:46;;;;;;;14.52;9.50;;;15.10;58.80;;;;;;6307593;22;19996;-73
2022/11/17 12:23:41;;;;;;;13.95;9.55;;;15.10;59.00;;;;;;6280539;22;19999;-72
2022/11/17 12:26:38;;;;;;;12.15;8.38;;;15.10;59.10;;;;;;6279850;22;19999;-73
2022/11/17 12:29:19;;;;;;;12.52;8.13;;;15.10;59.30;;;;;;6306465;22;20003;-73
2022/11/17 12:31:56;;;;;;;13.50;7.95;;;15.20;59.10;;;;;;6280387;22;20093;-73
2022/11/17 12:34:35;;;;;;;12.55;8.68;;;15.20;58.90;;;;;;6279972;22;20410;-73
2022/11/17 12:37:16;;;;;;;14.07;8.38;;;15.20;58.80;;;;;;6307846;22;20073;-73
2022/11/17 12:39:56;;;;;;;13.00;8.43;;;15.30;58.80;;;;;;6279724;22;20015;-73
2022/11/17 12:42:22;;;;;;;13.00;8.18;;;15.30;58.60;;;;;;6279842;22;20331;-73
2022/11/17 12:44:54;;;;;;;11.52;7.95;;;15.30;58.40;;;;;;6307013;22;19995;-73
2022/11/17 12:47:32;;;;;;;11.90;7.57;;;15.20;58.40;;;;;;6313176;22;20457;-95
2022/11/17 12:50:16;;;;;;;9.75;7.38;;;15.20;58.10;;;;;;6289480;22;20007;-94
2022/11/17 12:52:42;;;;;;;12.50;7.60;;;15.10;58.10;;;;;;6284316;22;20341;-95
2022/11/17 12:55:14;;;;;;;14.20;7.50;;;15.10;58.20;;;;;;6284803;22;20003;-95
2022/11/17 12:57:43;;;;;;;9.75;7.35;;;15.10;58.30;;;;;;6293663;22;19996;-95
2022/11/17 13:00:20;;;;;;;12.30;7.75;;;15.00;58.30;;;;;;6309510;22;20026;-95
2022/11/17 13:02:57;;;;;;;12.85;7.43;;;15.00;58.50;;;;;;6309209;22;20011;-95
2022/11/17 13:05:28;;;;;;;9.95;6.65;;;15.00;58.60;;;;;;6300512;22;20015;-95
2022/11/17 13:08:12;;;;;;;10.23;7.13;;;14.90;58.70;;;;;;6295718;22;20007;-94
2022/11/17 13:10:37;;;;;;;10.05;6.88;;;14.90;58.90;;;;;;6260931;22;20026;-96
2022/11/17 13:13:15;;;;;;;13.55;7.15;;;14.90;58.70;;;;;;6315938;22;19999;-94
2022/11/17 13:15:42;;;;;;;13.23;7.13;;;14.90;58.50;;;;;;6284720;22;20003;-95
2022/11/17 13:18:34;;;;;;;9.98;7.60;;;14.90;58.80;;;;;;6284641;22;20026;-95
2022/11/17 13:21:01;;;;;;;13.02;7.47;;;14.80;58.80;;;;;;6285812;22;20038;-94
2022/11/17 13:23:31;;;;;;;11.63;7.85;;;14.90;59.00;;;;;;6284186;22;20319;-94
2022/11/17 13:26:36;;;;;;;11.10;8.07;;;14.80;59.00;;;;;;6285178;22;20004;-95
2022/11/17 13:29:06;;;;;;;;;;;14.80;59.00;;;;;;6135476;23;20009;-95
2022/11/17 13:31:33;;;;;;;11.63;6.88;;;14.90;59.40;;;;;;6133045;23;19912;-95
2022/11/17 13:34:06;;;;;;;11.38;7.75;;;14.90;58.80;;;;;;6108217;23;20408;-94
2022/11/17 13:36:33;;;;;;;7.57;6.03;;;14.80;58.60;;;;;;6132452;23;20002;-96
2022/11/17 13:38:59;;;;;;;11.02;6.95;;;14.80;58.80;;;;;;6132651;23;20013;-95
2022/11/17 13:41:47;;;;;;;10.18;6.25;;;14.80;58.70;;;;;;6133132;23;20445;-95